Time;durP1;ratioP1;P1;durP2;ratioP2;P2;SDS_P1;SDS_P2;PMS_P1;PMS_P2;Temp;Humidity;BMP_temperature;BMP_pressure;BME280_temperature;BME280_humidity;BME280_pressure;Samples;Min_cycle;Max_cycle;Signal;HPM_P1;HPM_P2
2022/08/08 00:00:17;;;;;;;12.35;3.97;;;18.30;99.90;;;;;;5034592;28;20198;-83
2022/08/08 00:02:58;;;;;;;11.68;3.78;;;18.20;99.90;;;;;;5033803;28;20168;-83
2022/08/08 00:05:52;;;;;;;3.35;3.15;;;18.10;99.90;;;;;;5034497;28;20174;-83
2022/08/08 00:08:28;;;;;;;4.47;2.88;;;18.10;99.90;;;;;;5033413;28;20199;-83
2022/08/08 00:11:05;;;;;;;4.47;3.28;;;18.20;99.90;;;;;;5034779;28;20190;-82
2022/08/08 00:13:52;;;;;;;9.55;3.00;;;18.40;99.90;;;;;;5033619;28;20176;-83
2022/08/08 00:16:51;;;;;;;13.07;4.30;;;18.20;99.90;;;;;;5033344;28;20194;-82
2022/08/08 00:19:44;;;;;;;4.43;4.03;;;18.10;99.90;;;;;;4992600;28;20263;-82
2022/08/08 00:22:23;;;;;;;8.68;3.90;;;18.20;99.90;;;;;;5034364;28;20180;-83
2022/08/08 00:24:54;;;;;;;10.82;3.75;;;18.10;99.90;;;;;;5032800;28;20168;-83
2022/08/08 00:27:21;;;;;;;3.70;3.38;;;17.80;99.90;;;;;;5032353;28;20168;-83
2022/08/08 00:29:55;;;;;;;4.63;4.20;;;17.90;99.90;;;;;;5033991;28;20192;-83
2022/08/08 00:32:28;;;;;;;4.13;3.72;;;18.00;99.90;;;;;;5033112;28;20180;-84
2022/08/08 00:35:20;;;;;;;9.02;3.80;;;18.00;99.90;;;;;;5032739;28;20171;-83
2022/08/08 00:37:52;;;;;;;4.47;3.70;;;18.20;99.90;;;;;;5006889;28;20191;-83
2022/08/08 00:40:38;;;;;;;5.22;3.72;;;18.30;99.90;;;;;;5033125;28;20711;-82
2022/08/08 00:43:04;;;;;;;4.82;4.00;;;18.40;99.90;;;;;;4993297;28;20237;-82
2022/08/08 00:45:52;;;;;;;5.40;3.58;;;18.30;99.90;;;;;;5033081;28;20699;-88
2022/08/08 00:48:54;;;;;;;11.52;4.13;;;18.30;99.90;;;;;;4997108;28;20625;-83
2022/08/08 00:51:35;;;;;;;5.05;3.97;;;18.20;99.90;;;;;;5030850;28;20614;-88
2022/08/08 00:54:15;;;;;;;4.38;3.97;;;18.20;99.90;;;;;;5035142;28;20533;-83
2022/08/08 00:56:52;;;;;;;4.55;3.50;;;18.40;99.90;;;;;;5034021;28;20197;-82
2022/08/08 00:59:21;;;;;;;6.43;4.10;;;18.40;99.90;;;;;;5033885;28;20187;-83
2022/08/08 01:02:06;;;;;;;4.03;3.65;;;18.30;99.90;;;;;;5032766;28;20215;-83
2022/08/08 01:05:03;;;;;;;6.93;4.10;;;18.10;99.90;;;;;;5034013;28;20621;-81
2022/08/08 01:08:02;;;;;;;5.88;4.75;;;18.10;99.90;;;;;;5048992;28;20278;-82
2022/08/08 01:10:59;;;;;;;7.88;3.85;;;18.20;99.90;;;;;;5032056;28;20204;-82
2022/08/08 01:13:55;;;;;;;8.57;4.18;;;18.00;99.90;;;;;;5033856;28;20229;-82
2022/08/08 01:16:45;;;;;;;5.93;4.63;;;17.80;99.90;;;;;;5032697;28;20206;-82
2022/08/08 01:19:47;;;;;;;8.73;4.53;;;17.60;99.90;;;;;;5032160;28;20172;-83
2022/08/08 01:22:31;;;;;;;10.18;4.82;;;17.80;99.90;;;;;;5032147;28;20179;-82
2022/08/08 01:25:23;;;;;;;7.60;4.63;;;17.80;99.90;;;;;;5032236;28;20229;-81
2022/08/08 01:28:08;;;;;;;8.55;5.38;;;18.00;99.90;;;;;;5032080;28;20172;-82
2022/08/08 01:30:52;;;;;;;7.75;4.95;;;18.10;99.90;;;;;;5033303;28;20195;-83
2022/08/08 01:33:35;;;;;;;8.55;5.30;;;17.90;99.90;;;;;;5032153;28;20176;-84
2022/08/08 01:36:25;;;;;;;5.82;5.35;;;17.80;99.90;;;;;;5031873;28;20183;-83
2022/08/08 01:39:09;;;;;;;5.90;5.35;;;17.70;99.90;;;;;;5031894;28;20180;-83
2022/08/08 01:41:58;;;;;;;15.30;5.38;;;17.60;99.90;;;;;;5032023;28;20314;-82
2022/08/08 01:44:44;;;;;;;6.18;5.57;;;17.60;99.90;;;;;;5031693;28;20210;-83
2022/08/08 01:47:34;;;;;;;8.88;5.97;;;17.60;99.90;;;;;;5033323;28;20572;-82
2022/08/08 01:50:37;;;;;;;5.93;5.35;;;17.50;99.90;;;;;;5032981;28;20263;-82
2022/08/08 01:53:41;;;;;;;8.32;6.28;;;17.60;99.90;;;;;;5032570;28;20183;-83
2022/08/08 01:56:13;;;;;;;10.30;6.47;;;17.50;99.90;;;;;;5031962;28;20598;-83
2022/08/08 01:59:00;;;;;;;9.32;5.35;;;17.50;99.90;;;;;;5032874;28;20160;-83
2022/08/08 02:01:48;;;;;;;10.05;6.82;;;17.30;99.90;;;;;;5033270;28;20215;-83
2022/08/08 02:04:35;;;;;;;7.40;5.90;;;17.50;99.90;;;;;;5031157;28;20663;-83
2022/08/08 02:07:21;;;;;;;11.32;6.55;;;17.20;99.90;;;;;;5031321;28;20663;-83
2022/08/08 02:10:14;;;;;;;11.65;6.32;;;17.10;99.90;;;;;;5032086;28;20188;-83
2022/08/08 02:12:56;;;;;;;8.27;6.15;;;17.00;99.90;;;;;;5014515;28;20763;-83
2022/08/08 02:15:27;;;;;;;12.60;7.32;;;17.00;99.90;;;;;;5031094;28;20249;-82
2022/08/08 02:18:01;;;;;;;15.40;6.88;;;17.20;99.90;;;;;;5031271;28;20175;-82
2022/08/08 02:20:27;;;;;;;7.30;6.25;;;17.40;99.90;;;;;;5031131;28;20208;-83
2022/08/08 02:23:17;;;;;;;10.90;7.38;;;17.40;99.90;;;;;;5031317;28;20590;-85
2022/08/08 02:26:20;;;;;;;11.07;6.90;;;17.30;99.90;;;;;;5032872;28;20183;-86
2022/08/08 02:29:07;;;;;;;14.98;6.97;;;17.40;99.90;;;;;;5031619;28;20183;-82
2022/08/08 02:31:54;;;;;;;9.60;7.25;;;17.40;99.90;;;;;;5047899;28;20620;-82
2022/08/08 02:34:54;;;;;;;8.45;7.43;;;17.50;99.90;;;;;;5031250;28;20539;-83
2022/08/08 02:37:38;;;;;;;15.50;7.72;;;17.40;99.90;;;;;;5031106;28;20194;-83
2022/08/08 02:40:40;;;;;;;10.07;7.18;;;17.50;99.90;;;;;;5031380;28;20191;-82
2022/08/08 02:43:22;;;;;;;10.75;7.97;;;17.50;99.90;;;;;;5031284;28;20176;-82
2022/08/08 02:45:47;;;;;;;17.10;7.60;;;17.40;99.90;;;;;;5031236;28;20168;-83
2022/08/08 02:48:45;;;;;;;18.75;7.88;;;17.40;99.90;;;;;;5030797;28;20517;-82
2022/08/08 02:51:48;;;;;;;9.18;7.93;;;17.30;99.90;;;;;;5032725;28;20198;-83
2022/08/08 02:54:28;;;;;;;7.78;7.07;;;17.10;99.90;;;;;;5037639;28;20179;-84
2022/08/08 02:57:25;;;;;;;11.00;8.38;;;17.20;99.90;;;;;;5038065;28;20240;-82
2022/08/08 03:00:14;;;;;;;11.68;8.05;;;17.30;99.90;;;;;;5036202;28;20694;-83
2022/08/08 03:03:17;;;;;;;12.13;7.85;;;17.20;99.90;;;;;;5053179;28;20176;-85
2022/08/08 03:06:28;;;;;;;14.57;9.10;;;17.30;99.90;;;;;;5036705;28;20175;-84
2022/08/08 03:09:18;;;;;;;13.48;9.07;;;17.00;99.90;;;;;;4975545;28;20184;-83
2022/08/08 03:12:02;;;;;;;21.63;8.40;;;17.00;99.90;;;;;;5032300;28;20176;-83
2022/08/08 03:14:42;;;;;;;9.77;8.45;;;17.00;99.90;;;;;;5035178;28;20590;-84
2022/08/08 03:17:13;;;;;;;11.63;8.60;;;17.10;99.90;;;;;;5034963;28;20529;-84
2022/08/08 03:20:09;;;;;;;15.20;10.35;;;16.90;99.90;;;;;;5034744;28;20196;-87
2022/08/08 03:22:50;;;;;;;17.27;9.90;;;16.80;99.90;;;;;;5035270;28;20196;-83
2022/08/08 03:25:18;;;;;;;24.02;10.38;;;16.80;99.90;;;;;;5035127;28;20697;-85
2022/08/08 03:27:49;;;;;;;16.75;9.98;;;16.70;99.90;;;;;;5034885;28;20254;-84
2022/08/08 03:30:15;;;;;;;13.20;9.43;;;16.60;99.90;;;;;;5034544;28;20279;-84
2022/08/08 03:35:27;;;;;;;12.90;10.10;;;16.60;99.90;;;;;;5035916;28;20226;-87
2022/08/08 03:37:53;;;;;;;15.18;11.00;;;16.60;99.90;;;;;;5036805;28;20222;-85
2022/08/08 03:40:21;;;;;;;15.18;11.52;;;16.80;99.90;;;;;;5034319;28;20620;-87
2022/08/08 03:42:47;;;;;;;18.30;10.75;;;16.90;99.90;;;;;;5035111;28;20211;-88
2022/08/08 03:45:14;;;;;;;17.67;10.45;;;16.80;99.90;;;;;;5035214;28;20168;-87
2022/08/08 03:47:40;;;;;;;14.90;10.90;;;16.60;99.90;;;;;;5018410;28;20179;-88
2022/08/08 03:50:16;;;;;;;17.85;10.02;;;16.50;99.90;;;;;;5034680;28;20195;-88
2022/08/08 03:52:41;;;;;;;19.88;11.05;;;16.60;99.90;;;;;;5035225;28;20180;-85
2022/08/08 03:55:12;;;;;;;14.15;11.43;;;16.80;99.90;;;;;;5034630;28;20278;-88
2022/08/08 03:57:44;;;;;;;13.10;11.40;;;16.80;99.90;;;;;;5034625;28;20263;-84
2022/08/08 04:00:11;;;;;;;22.33;11.75;;;17.00;99.90;;;;;;5034244;28;20257;-85
2022/08/08 04:02:37;;;;;;;14.93;11.93;;;17.00;99.90;;;;;;5033290;28;20207;-85
2022/08/08 04:05:04;;;;;;;13.70;11.35;;;16.60;99.90;;;;;;5034270;28;20221;-86
2022/08/08 04:07:40;;;;;;;18.90;11.82;;;16.50;99.90;;;;;;5035541;28;20168;-84
2022/08/08 04:10:07;;;;;;;19.33;12.40;;;16.40;99.90;;;;;;5034098;28;20630;-84
2022/08/08 04:12:33;;;;;;;19.30;11.05;;;16.30;99.90;;;;;;5035196;28;20210;-83
2022/08/08 04:14:59;;;;;;;21.02;13.18;;;16.20;99.90;;;;;;5033851;28;20164;-85
2022/08/08 04:17:25;;;;;;;17.50;12.18;;;16.30;99.90;;;;;;5033783;28;20176;-83
2022/08/08 04:19:50;;;;;;;19.30;12.45;;;16.30;99.90;;;;;;5033512;28;20322;-85
2022/08/08 04:22:16;;;;;;;19.70;12.85;;;16.50;99.90;;;;;;5035006;28;20176;-88
2022/08/08 04:24:42;;;;;;;17.65;12.60;;;16.40;99.90;;;;;;5033747;28;20160;-84
2022/08/08 04:27:07;;;;;;;15.88;12.02;;;16.50;99.90;;;;;;5033937;28;20654;-84
2022/08/08 04:29:33;;;;;;;16.05;12.43;;;16.40;99.90;;;;;;5035256;28;20192;-86
2022/08/08 04:31:59;;;;;;;19.65;13.05;;;16.30;99.90;;;;;;5036671;28;20218;-85
2022/08/08 04:34:24;;;;;;;17.13;11.80;;;16.40;99.90;;;;;;5033762;28;20174;-86
2022/08/08 04:36:50;;;;;;;19.95;12.75;;;16.40;99.90;;;;;;5033638;28;20172;-85
2022/08/08 04:39:15;;;;;;;18.73;12.27;;;16.50;99.90;;;;;;5034010;28;20721;-84
2022/08/08 04:41:41;;;;;;;19.65;12.23;;;16.50;99.90;;;;;;5033477;28;20675;-85
2022/08/08 04:44:06;;;;;;;14.35;12.20;;;16.60;99.90;;;;;;5033081;28;20176;-87
2022/08/08 04:46:32;;;;;;;23.02;12.77;;;16.60;99.90;;;;;;5033054;28;20233;-84
2022/08/08 04:48:58;;;;;;;15.88;11.75;;;16.40;99.90;;;;;;5032996;28;20179;-82
2022/08/08 04:51:23;;;;;;;25.00;12.30;;;16.40;99.90;;;;;;5033183;28;20257;-84
2022/08/08 04:53:49;;;;;;;17.80;13.10;;;16.50;99.90;;;;;;5034448;28;20160;-85
2022/08/08 04:56:16;;;;;;;19.42;12.07;;;16.60;99.90;;;;;;5034220;28;20786;-84
2022/08/08 04:58:42;;;;;;;15.95;11.63;;;16.50;99.90;;;;;;5033290;28;20164;-84
2022/08/08 05:01:08;;;;;;;15.50;11.90;;;16.30;99.90;;;;;;5033197;28;20216;-87
2022/08/08 05:03:33;;;;;;;20.00;11.45;;;16.40;99.90;;;;;;5033666;28;20175;-83
2022/08/08 05:05:59;;;;;;;19.13;11.63;;;16.40;99.90;;;;;;5033029;28;20168;-83
2022/08/08 05:08:25;;;;;;;15.90;10.93;;;16.40;99.90;;;;;;5032553;28;20242;-83
2022/08/08 05:10:51;;;;;;;20.98;12.38;;;16.40;99.90;;;;;;5032653;28;20195;-84
2022/08/08 05:13:17;;;;;;;20.88;10.95;;;16.50;99.90;;;;;;5033485;28;20644;-86
2022/08/08 05:15:43;;;;;;;26.52;11.63;;;16.50;99.90;;;;;;5032916;28;20186;-83
2022/08/08 05:18:08;;;;;;;19.52;11.52;;;16.70;99.90;;;;;;5032907;28;20164;-84
2022/08/08 05:20:34;;;;;;;12.95;10.88;;;16.90;99.90;;;;;;5033884;28;20196;-83
2022/08/08 05:22:59;;;;;;;13.23;11.43;;;17.00;99.90;;;;;;5033163;28;20175;-84
2022/08/08 05:25:25;;;;;;;16.67;11.98;;;16.90;99.90;;;;;;5032805;28;20204;-84
2022/08/08 05:27:52;;;;;;;13.50;10.82;;;16.90;99.90;;;;;;5032853;28;20172;-84
2022/08/08 05:30:18;;;;;;;21.40;12.13;;;17.20;99.90;;;;;;5033794;28;20191;-84
2022/08/08 05:32:44;;;;;;;21.98;10.68;;;17.20;99.90;;;;;;5032860;28;20178;-84
2022/08/08 05:35:12;;;;;;;22.98;11.45;;;17.10;99.90;;;;;;5032146;28;20167;-83
2022/08/08 05:38:02;;;;;;;15.57;12.53;;;17.00;99.90;;;;;;5030820;28;20441;-80
2022/08/08 05:40:28;;;;;;;17.58;11.35;;;17.00;99.90;;;;;;5031208;28;21036;-82
2022/08/08 05:43:03;;;;;;;25.35;10.35;;;17.20;99.90;;;;;;5033447;28;20156;-81
2022/08/08 05:45:34;;;;;;;19.13;10.20;;;17.40;99.90;;;;;;5031706;28;20300;-83
2022/08/08 05:48:08;;;;;;;17.08;9.93;;;17.40;99.90;;;;;;5031762;28;20164;-82
2022/08/08 05:50:34;;;;;;;19.63;11.65;;;17.30;99.90;;;;;;5031993;28;20196;-85
2022/08/08 05:53:00;;;;;;;17.70;9.95;;;17.30;99.90;;;;;;5033436;28;20584;-82
2022/08/08 05:55:28;;;;;;;27.25;9.75;;;17.40;99.90;;;;;;5033411;28;20237;-86
2022/08/08 05:57:58;;;;;;;23.73;10.13;;;17.40;99.90;;;;;;5033693;28;20164;-87
2022/08/08 06:00:30;;;;;;;23.10;11.27;;;17.70;99.90;;;;;;5033350;28;20290;-84
2022/08/08 06:03:10;;;;;;;10.55;9.55;;;17.60;99.90;;;;;;5031158;28;20172;-82
2022/08/08 06:06:06;;;;;;;14.35;9.27;;;17.60;99.90;;;;;;5030777;28;20179;-81
2022/08/08 06:08:37;;;;;;;29.08;10.00;;;17.80;99.90;;;;;;5033168;28;20251;-84
2022/08/08 06:11:03;;;;;;;19.65;9.95;;;18.10;99.90;;;;;;5031670;28;20198;-84
2022/08/08 06:13:29;;;;;;;22.40;10.27;;;18.20;99.90;;;;;;5032152;28;20172;-85
2022/08/08 06:15:56;;;;;;;18.67;7.82;;;18.30;99.90;;;;;;5033236;28;20561;-83
2022/08/08 06:18:26;;;;;;;14.05;9.38;;;18.30;99.90;;;;;;5033080;28;20175;-83
2022/08/08 06:20:54;;;;;;;13.45;8.18;;;18.40;99.90;;;;;;5032102;28;20199;-85
2022/08/08 06:23:25;;;;;;;12.18;8.15;;;18.40;99.90;;;;;;5032152;28;20213;-85
2022/08/08 06:26:05;;;;;;;15.02;9.05;;;18.20;99.90;;;;;;5047696;28;20182;-86
2022/08/08 06:28:32;;;;;;;10.82;7.78;;;18.10;99.90;;;;;;5032643;28;20175;-88
2022/08/08 06:31:00;;;;;;;8.40;7.60;;;18.30;99.90;;;;;;5032443;28;20188;-80
2022/08/08 06:33:40;;;;;;;9.05;8.07;;;18.50;99.90;;;;;;5032778;28;20520;-80
2022/08/08 06:36:07;;;;;;;21.23;7.82;;;18.50;99.90;;;;;;5032259;28;20659;-79
2022/08/08 06:38:38;;;;;;;11.30;7.28;;;18.70;99.90;;;;;;5032441;28;20208;-78
2022/08/08 06:41:06;;;;;;;12.10;8.10;;;18.70;99.90;;;;;;5031529;28;20211;-79
2022/08/08 06:43:35;;;;;;;8.88;6.53;;;18.70;99.90;;;;;;5031917;28;20164;-77
2022/08/08 06:46:03;;;;;;;12.88;7.18;;;18.60;99.90;;;;;;5032426;28;20172;-78
2022/08/08 06:48:29;;;;;;;11.60;6.93;;;18.70;99.90;;;;;;5031831;28;20163;-78
2022/08/08 06:50:56;;;;;;;11.98;6.18;;;18.90;99.90;;;;;;5031563;28;20710;-79
2022/08/08 06:53:24;;;;;;;16.77;6.93;;;18.70;99.90;;;;;;5032075;28;20252;-80
2022/08/08 06:55:50;;;;;;;10.27;6.85;;;18.60;99.90;;;;;;5031365;28;20183;-88
2022/08/08 06:58:16;;;;;;;11.20;6.90;;;18.70;99.90;;;;;;5034958;28;20911;-83
2022/08/08 07:00:47;;;;;;;11.57;6.32;;;18.80;99.90;;;;;;5015787;28;20239;-82
2022/08/08 07:03:37;;;;;;;5.65;5.15;;;19.10;99.90;;;;;;5011832;28;20677;-82
2022/08/08 07:06:07;;;;;;;8.43;5.60;;;19.10;99.90;;;;;;5003475;28;20817;-81
2022/08/08 07:08:40;;;;;;;10.95;6.28;;;19.20;99.90;;;;;;5032932;28;20191;-83
2022/08/08 07:11:07;;;;;;;10.63;5.63;;;19.30;99.90;;;;;;5031119;28;20188;-84
2022/08/08 07:13:43;;;;;;;6.93;5.15;;;19.40;99.90;;;;;;5030770;28;20211;-83
2022/08/08 07:16:19;;;;;;;16.58;5.47;;;19.60;99.90;;;;;;5030286;28;20170;-82
2022/08/08 07:19:05;;;;;;;5.15;4.65;;;19.80;99.90;;;;;;5032137;28;20214;-82
2022/08/08 07:21:55;;;;;;;16.80;5.93;;;19.90;99.90;;;;;;5020553;28;20200;-85
2022/08/08 07:24:44;;;;;;;6.72;5.10;;;20.30;99.90;;;;;;5011968;28;20177;-81
2022/08/08 07:27:12;;;;;;;9.15;5.03;;;20.70;99.90;;;;;;5013565;28;20181;-80
2022/08/08 07:29:38;;;;;;;8.32;6.00;;;21.00;99.90;;;;;;5017041;28;20180;-81
2022/08/08 07:32:06;;;;;;;12.50;5.85;;;21.40;99.90;;;;;;5034908;28;20183;-82
2022/08/08 07:34:34;;;;;;;13.95;5.32;;;21.60;99.90;;;;;;5043285;28;20532;-82
2022/08/08 07:37:01;;;;;;;16.88;5.63;;;21.80;99.90;;;;;;5033294;28;20167;-85
2022/08/08 07:39:32;;;;;;;19.20;5.50;;;21.90;99.90;;;;;;5052684;28;20188;-88
2022/08/08 07:41:58;;;;;;;9.68;5.28;;;22.00;99.90;;;;;;5054114;28;20212;-89
2022/08/08 07:44:24;;;;;;;6.85;5.03;;;21.80;99.90;;;;;;5038895;28;20201;-86
2022/08/08 07:46:51;;;;;;;16.90;4.95;;;21.90;99.90;;;;;;5047317;28;20240;-89
2022/08/08 07:49:16;;;;;;;7.60;4.47;;;21.70;99.90;;;;;;5030761;28;20185;-87
2022/08/08 07:51:43;;;;;;;22.73;5.95;;;21.70;99.90;;;;;;5049804;28;20184;-87
2022/08/08 07:54:34;;;;;;;11.20;4.75;;;21.50;99.90;;;;;;5033996;28;20244;-87
2022/08/08 07:57:21;;;;;;;19.52;4.78;;;21.30;99.90;;;;;;5023948;28;20282;-92
2022/08/08 08:00:08;;;;;;;7.68;4.85;;;21.30;99.90;;;;;;5030630;28;20184;-88
2022/08/08 08:02:47;;;;;;;7.20;3.45;;;21.10;99.90;;;;;;5031837;28;20184;-88
2022/08/08 08:05:22;;;;;;;5.30;4.80;;;20.80;99.90;;;;;;5013789;28;20425;-86
2022/08/08 08:07:52;;;;;;;11.25;4.57;;;20.90;99.90;;;;;;5014037;28;20183;-88
2022/08/08 08:10:19;;;;;;;7.97;4.38;;;20.90;99.90;;;;;;5031277;28;20334;-88
2022/08/08 08:12:54;;;;;;;7.95;4.35;;;20.80;99.90;;;;;;5032145;28;20180;-86
2022/08/08 08:15:25;;;;;;;7.78;3.78;;;20.90;99.90;;;;;;5031372;28;20174;-87
2022/08/08 08:17:57;;;;;;;8.10;3.90;;;21.20;99.90;;;;;;5032117;28;20164;-88
2022/08/08 08:20:28;;;;;;;6.65;4.47;;;21.40;99.90;;;;;;5032450;28;20208;-92
2022/08/08 08:22:54;;;;;;;5.40;3.45;;;21.50;99.90;;;;;;5017065;28;20258;-88
2022/08/08 08:25:19;;;;;;;8.00;3.22;;;21.50;99.90;;;;;;5032253;28;20172;-90
2022/08/08 08:27:45;;;;;;;5.85;4.00;;;21.40;99.90;;;;;;5032092;28;20664;-94
2022/08/08 08:30:12;;;;;;;9.68;3.85;;;21.40;99.90;;;;;;5031764;28;20188;-87
2022/08/08 08:32:41;;;;;;;4.00;3.38;;;21.30;99.90;;;;;;5036607;28;20284;-87
2022/08/08 08:35:08;;;;;;;4.28;3.15;;;21.40;99.90;;;;;;5035594;28;20179;-89
2022/08/08 08:37:33;;;;;;;10.23;3.58;;;21.20;99.90;;;;;;5034862;28;20290;-88
2022/08/08 08:39:59;;;;;;;4.60;3.70;;;21.20;99.90;;;;;;5034807;28;20215;-87
2022/08/08 08:42:25;;;;;;;5.07;3.03;;;21.30;99.90;;;;;;5032869;28;20207;-93
2022/08/08 08:44:52;;;;;;;10.30;3.88;;;21.30;99.90;;;;;;5015695;28;20182;-93
2022/08/08 08:47:19;;;;;;;7.32;3.63;;;21.50;99.90;;;;;;5031571;28;20636;-89
2022/08/08 08:49:44;;;;;;;4.78;3.38;;;21.70;99.90;;;;;;5033553;28;20195;-92
2022/08/08 08:52:15;;;;;;;5.05;3.25;;;21.90;99.90;;;;;;5035300;28;20175;-90
2022/08/08 08:54:42;;;;;;;4.22;3.15;;;22.00;99.90;;;;;;5035782;28;20255;-91
2022/08/08 08:57:08;;;;;;;8.65;3.28;;;22.00;99.90;;;;;;5035622;28;20207;-89
2022/08/08 08:59:39;;;;;;;7.28;3.72;;;22.00;99.90;;;;;;5035189;28;20274;-89
2022/08/08 09:02:23;;;;;;;5.55;3.45;;;22.20;99.90;;;;;;5033521;28;20219;-86
2022/08/08 09:04:54;;;;;;;5.55;3.97;;;22.20;99.90;;;;;;5033582;28;20172;-86
2022/08/08 09:07:23;;;;;;;4.10;3.72;;;22.20;99.90;;;;;;5027624;28;20168;-87
2022/08/08 09:09:51;;;;;;;12.95;3.13;;;22.30;99.90;;;;;;5014013;28;20192;-87
2022/08/08 09:12:20;;;;;;;12.68;3.38;;;22.10;99.90;;;;;;5015546;28;20165;-87
2022/08/08 09:14:47;;;;;;;3.13;2.63;;;22.20;99.90;;;;;;5014299;28;20164;-87
2022/08/08 09:17:13;;;;;;;8.85;3.63;;;22.00;99.90;;;;;;5015381;28;20168;-86
2022/08/08 09:19:40;;;;;;;10.13;3.35;;;21.90;99.90;;;;;;5013726;28;20189;-89
2022/08/08 09:22:06;;;;;;;8.68;3.95;;;22.30;99.90;;;;;;5014677;28;20254;-88
2022/08/08 09:24:34;;;;;;;5.75;3.53;;;22.30;99.90;;;;;;5014415;28;20173;-89
2022/08/08 09:27:12;;;;;;;3.45;3.15;;;22.30;99.90;;;;;;5014668;28;20176;-89
2022/08/08 09:30:00;;;;;;;12.40;3.63;;;22.40;99.90;;;;;;5015584;28;20211;-89
2022/08/08 09:32:37;;;;;;;8.88;3.35;;;22.60;99.90;;;;;;5016423;28;20191;-90
2022/08/08 09:35:09;;;;;;;3.10;2.63;;;22.90;99.90;;;;;;5014476;28;20180;-88
2022/08/08 09:38:02;;;;;;;5.47;3.30;;;23.00;99.90;;;;;;5014313;28;20164;-89
2022/08/08 09:40:30;;;;;;;12.13;2.55;;;23.10;99.90;;;;;;5014921;28;20208;-84
2022/08/08 09:43:19;;;;;;;10.85;2.42;;;23.20;99.90;;;;;;5014357;28;20180;-85
2022/08/08 09:45:58;;;;;;;11.55;3.67;;;23.20;99.90;;;;;;5016167;28;20175;-85
2022/08/08 09:48:28;;;;;;;3.22;2.47;;;23.30;99.90;;;;;;5013761;28;20307;-84
2022/08/08 09:50:55;;;;;;;13.50;2.08;;;23.20;99.90;;;;;;5012741;28;20192;-84
2022/08/08 09:53:20;;;;;;;10.15;1.95;;;23.40;99.90;;;;;;5013715;28;20169;-84
2022/08/08 09:55:46;;;;;;;5.97;1.75;;;23.60;99.90;;;;;;5013338;28;20184;-84
2022/08/08 09:58:19;;;;;;;10.50;1.67;;;23.80;99.90;;;;;;5012573;28;20231;-85
2022/08/08 10:00:48;;;;;;;10.52;1.90;;;23.70;99.90;;;;;;5012313;28;20248;-82
2022/08/08 10:03:16;;;;;;;2.47;2.13;;;23.80;99.90;;;;;;5013095;28;20584;-86
2022/08/08 10:05:42;;;;;;;4.53;2.10;;;23.90;99.90;;;;;;5012065;28;20164;-85
2022/08/08 10:08:08;;;;;;;4.68;2.55;;;23.80;99.90;;;;;;5012814;28;20180;-86
2022/08/08 10:10:35;;;;;;;2.05;1.45;;;23.60;99.90;;;;;;5013712;28;20978;-87
2022/08/08 10:13:21;;;;;;;5.65;1.48;;;23.60;99.90;;;;;;5013795;28;20180;-88
2022/08/08 10:15:52;;;;;;;4.30;1.83;;;23.60;99.90;;;;;;5014549;28;20225;-87
2022/08/08 10:18:25;;;;;;;8.85;1.85;;;23.50;99.90;;;;;;5013710;28;20181;-88
2022/08/08 10:20:53;;;;;;;11.52;2.42;;;23.50;99.90;;;;;;5013654;28;20261;-88
2022/08/08 10:23:33;;;;;;;8.70;1.80;;;23.60;99.90;;;;;;5013471;28;20180;-88
2022/08/08 10:25:59;;;;;;;2.67;1.60;;;23.80;99.90;;;;;;5013414;28;20263;-88
2022/08/08 10:28:26;;;;;;;16.17;1.63;;;23.90;99.90;;;;;;5013212;28;20179;-88
2022/08/08 10:30:58;;;;;;;1.73;1.60;;;24.00;99.90;;;;;;5013339;28;20660;-86
2022/08/08 10:33:31;;;;;;;2.15;1.60;;;24.00;99.90;;;;;;5013343;28;20188;-88
2022/08/08 10:36:03;;;;;;;2.03;1.23;;;23.90;99.90;;;;;;5013401;28;20175;-88
2022/08/08 10:38:30;;;;;;;10.32;1.30;;;23.90;99.90;;;;;;5013010;28;20203;-89
2022/08/08 10:41:02;;;;;;;3.15;1.70;;;24.00;99.90;;;;;;5012970;28;20676;-88
2022/08/08 10:43:38;;;;;;;2.65;1.35;;;23.90;99.90;;;;;;5013195;28;20191;-87
2022/08/08 10:46:04;;;;;;;2.15;1.45;;;24.00;99.90;;;;;;5013444;28;20633;-88
2022/08/08 10:48:34;;;;;;;5.00;1.20;;;23.80;99.90;;;;;;5013122;28;20191;-88
2022/08/08 10:51:13;;;;;;;3.25;1.42;;;23.90;99.90;;;;;;5012916;28;20238;-87
2022/08/08 10:53:38;;;;;;;8.30;1.40;;;23.80;99.90;;;;;;5012977;28;20248;-88
2022/08/08 10:56:04;;;;;;;4.15;1.42;;;23.80;99.90;;;;;;5015540;28;20223;-88
2022/08/08 10:58:29;;;;;;;7.35;1.40;;;23.70;99.90;;;;;;5012475;28;20699;-88
2022/08/08 11:00:55;;;;;;;5.43;1.17;;;23.90;99.90;;;;;;5012469;28;20307;-88
2022/08/08 11:03:21;;;;;;;7.32;1.15;;;24.20;99.90;;;;;;5012696;28;20194;-89
2022/08/08 11:05:52;;;;;;;3.72;1.63;;;24.50;99.90;;;;;;5010503;28;20756;-84
2022/08/08 11:08:23;;;;;;;1.80;1.20;;;24.10;99.90;;;;;;5012138;28;20234;-86
2022/08/08 11:11:03;;;;;;;2.95;1.10;;;24.10;99.90;;;;;;5012865;28;20645;-86
2022/08/08 11:13:38;;;;;;;3.10;1.00;;;24.20;99.90;;;;;;5015142;28;20176;-85
2022/08/08 11:16:04;;;;;;;3.90;0.70;;;24.00;99.90;;;;;;5014352;28;20580;-85
2022/08/08 11:23:42;;;;;;;1.75;1.10;;;24.00;99.90;;;;;;5041046;28;20215;-86
2022/08/08 11:26:16;;;;;;;11.25;1.13;;;24.10;99.90;;;;;;5028096;28;20172;-90
2022/08/08 11:28:47;;;;;;;2.55;0.98;;;24.20;99.90;;;;;;5017218;28;20162;-95
2022/08/08 11:31:26;;;;;;;9.95;1.27;;;24.30;99.90;;;;;;5033514;28;20187;-91
2022/08/08 11:34:27;;;;;;;1.08;0.82;;;24.40;99.90;;;;;;5016496;28;20171;-89
2022/08/08 11:36:54;;;;;;;5.90;1.00;;;24.40;99.90;;;;;;4982649;28;20184;-90
2022/08/08 11:39:20;;;;;;;6.60;1.10;;;24.50;99.90;;;;;;5023579;28;20164;-91
2022/08/08 11:41:46;;;;;;;2.83;1.02;;;24.40;99.90;;;;;;5020592;28;20208;-92
2022/08/08 11:44:13;;;;;;;2.50;0.93;;;24.40;99.90;;;;;;5021421;28;20228;-89
2022/08/08 11:46:39;;;;;;;1.58;0.93;;;24.50;99.90;;;;;;5022912;28;20164;-91
2022/08/08 11:49:12;;;;;;;0.93;0.85;;;24.30;99.90;;;;;;5022551;28;20190;-91
2022/08/08 11:51:39;;;;;;;4.78;1.02;;;24.30;99.90;;;;;;5020979;28;20244;-87
2022/08/08 11:54:08;;;;;;;2.83;0.80;;;24.30;99.90;;;;;;5021861;28;20171;-93
2022/08/08 11:56:34;;;;;;;4.97;1.40;;;24.40;99.90;;;;;;5021596;28;20214;-87
2022/08/08 11:59:08;;;;;;;3.08;1.02;;;24.30;99.90;;;;;;5039505;28;20172;-87
2022/08/08 12:01:33;;;;;;;2.55;1.20;;;24.30;99.90;;;;;;5019966;28;20207;-92
2022/08/08 12:04:01;;;;;;;4.32;1.20;;;24.20;99.90;;;;;;5021490;28;20251;-88
2022/08/08 12:06:27;;;;;;;2.33;0.90;;;24.30;99.90;;;;;;5038842;28;20164;-91
2022/08/08 12:09:03;;;;;;;2.90;1.08;;;24.40;99.90;;;;;;5020684;28;20175;-91
2022/08/08 12:11:42;;;;;;;8.63;0.90;;;24.30;99.90;;;;;;5038710;28;20237;-94
2022/08/08 12:14:08;;;;;;;5.72;1.08;;;24.40;99.90;;;;;;5020852;28;20179;-93
2022/08/08 12:16:48;;;;;;;2.30;0.73;;;24.40;99.90;;;;;;5020024;28;20649;-90
2022/08/08 12:19:13;;;;;;;8.80;1.02;;;24.60;99.90;;;;;;5004594;28;20597;-92
2022/08/08 12:21:40;;;;;;;2.67;0.90;;;24.90;99.90;;;;;;5038095;28;20214;-92
2022/08/08 12:24:12;;;;;;;2.13;0.80;;;24.80;99.90;;;;;;5018379;28;20187;-91
2022/08/08 12:26:37;;;;;;;1.60;0.90;;;24.70;99.90;;;;;;5019488;28;20190;-92
2022/08/08 12:29:31;;;;;;;3.60;1.05;;;24.70;99.90;;;;;;5019731;28;20247;-91
2022/08/08 12:32:01;;;;;;;5.70;1.00;;;24.80;99.90;;;;;;5020957;28;20325;-92
2022/08/08 12:34:56;;;;;;;4.47;1.10;;;25.20;99.90;;;;;;5019819;28;20172;-91
2022/08/08 12:37:30;;;;;;;2.47;1.00;;;25.40;99.90;;;;;;5019457;28;20203;-92
2022/08/08 12:40:00;;;;;;;6.50;1.25;;;25.30;99.90;;;;;;5019806;28;20198;-92
2022/08/08 12:42:26;;;;;;;1.65;0.95;;;25.10;99.90;;;;;;5020991;28;20225;-90
2022/08/08 12:45:06;;;;;;;2.10;0.90;;;24.90;99.90;;;;;;5019349;28;20253;-91
2022/08/08 12:47:32;;;;;;;7.43;1.00;;;24.90;99.90;;;;;;5020313;28;20190;-90
2022/08/08 12:49:58;;;;;;;2.03;0.88;;;24.70;99.90;;;;;;5020051;28;20191;-93
2022/08/08 12:52:23;;;;;;;3.03;1.00;;;24.90;99.90;;;;;;5022229;28;20552;-94
2022/08/08 12:55:04;;;;;;;2.20;0.85;;;24.90;99.90;;;;;;5020162;28;20278;-93
2022/08/08 12:57:30;;;;;;;6.55;0.90;;;24.90;99.90;;;;;;5020038;28;20176;-93
2022/08/08 12:59:57;;;;;;;5.60;0.70;;;25.00;99.90;;;;;;5019117;28;20198;-92
2022/08/08 13:02:28;;;;;;;3.58;1.08;;;25.00;99.90;;;;;;5019004;28;20204;-90
2022/08/08 13:04:56;;;;;;;2.42;0.80;;;25.00;99.90;;;;;;5018914;28;20271;-91
2022/08/08 13:07:36;;;;;;;1.00;0.90;;;24.90;99.90;;;;;;5034833;28;20231;-91
2022/08/08 13:10:07;;;;;;;13.05;0.70;;;24.80;99.90;;;;;;5023289;28;20217;-91
2022/08/08 13:13:00;;;;;;;6.35;0.90;;;24.90;99.90;;;;;;5018839;28;20201;-92
2022/08/08 13:15:28;;;;;;;3.33;0.60;;;25.20;99.90;;;;;;4999866;28;20334;-90
2022/08/08 13:17:55;;;;;;;1.88;0.98;;;25.30;99.90;;;;;;5017656;28;20167;-87
2022/08/08 13:20:22;;;;;;;4.55;1.17;;;25.50;99.90;;;;;;5010610;28;20184;-88
2022/08/08 13:22:48;;;;;;;3.00;0.80;;;25.80;99.90;;;;;;5014325;28;20176;-89